createdAt,value
2018-06-08T08:59:28.150Z,2.90
2018-06-08T09:01:56.539Z,0.70
2018-06-08T09:04:25.203Z,0.93
2018-06-08T09:06:53.512Z,1.02
2018-06-08T09:09:21.992Z,1.10
2018-06-08T09:11:50.310Z,0.98
2018-06-08T09:14:18.763Z,0.75
2018-06-08T09:16:47.104Z,1.00
2018-06-08T09:19:15.822Z,1.05
2018-06-08T09:21:44.140Z,0.80
2018-06-08T09:24:13.006Z,0.80
2018-06-08T09:26:41.304Z,0.88
2018-06-08T09:29:09.559Z,1.20
2018-06-08T09:31:37.862Z,1.03
2018-06-08T09:34:06.493Z,1.10
2018-06-08T09:36:34.988Z,1.00
2018-06-08T09:39:03.309Z,0.85
2018-06-08T09:41:31.843Z,1.17
2018-06-08T09:44:00.203Z,0.98
2018-06-08T09:46:28.559Z,0.98
2018-06-08T09:48:56.821Z,0.95
2018-06-08T09:51:26.071Z,1.22
2018-06-08T09:53:54.426Z,0.80
2018-06-08T09:56:22.670Z,0.93
2018-06-08T09:58:50.916Z,1.20
2018-06-08T10:01:19.246Z,0.85
2018-06-08T10:03:47.554Z,1.17
2018-06-08T10:06:15.916Z,0.70
2018-06-08T10:08:44.189Z,0.90
2018-06-08T10:11:12.627Z,0.80
2018-06-08T10:13:40.866Z,1.05
2018-06-08T10:16:09.206Z,1.10
2018-06-08T10:18:37.500Z,0.95
2018-06-08T10:21:05.778Z,0.60
2018-06-08T10:23:34.133Z,0.80
2018-06-08T10:26:02.561Z,1.10
2018-06-08T10:28:30.885Z,0.80
2018-06-08T10:30:59.203Z,0.80
2018-06-08T10:33:27.691Z,1.20
2018-06-08T10:35:55.947Z,1.00
2018-06-08T10:38:24.326Z,0.77
2018-06-08T10:40:52.745Z,1.03
2018-06-08T10:43:21.015Z,1.03
2018-06-08T10:45:49.345Z,0.87
2018-06-08T10:48:17.692Z,1.03
2018-06-08T10:50:45.957Z,0.80
2018-06-08T10:53:14.235Z,1.00
2018-06-08T10:55:42.538Z,1.00
2018-06-08T10:58:12.335Z,0.80
2018-06-08T11:00:40.629Z,0.70
2018-06-08T11:03:08.739Z,1.17
2018-06-08T11:05:37.127Z,1.40
2018-06-08T11:08:05.370Z,1.30
2018-06-08T11:10:33.682Z,1.50
2018-06-08T11:13:01.985Z,0.83
2018-06-08T11:15:30.284Z,1.00
2018-06-08T11:17:58.528Z,0.70
2018-06-08T11:20:26.808Z,1.60
2018-06-08T11:22:55.077Z,1.33
2018-06-08T11:25:23.351Z,1.57
2018-06-08T11:27:51.696Z,1.40
2018-06-08T11:30:20.075Z,1.73
2018-06-08T11:32:48.454Z,1.70
2018-06-08T11:35:16.701Z,1.90
2018-06-08T11:37:44.946Z,2.20
2018-06-08T11:40:13.215Z,1.80
2018-06-08T11:42:41.575Z,1.47
2018-06-08T11:45:09.834Z,1.60
2018-06-08T11:47:38.071Z,1.83
2018-06-08T11:50:06.513Z,1.57
2018-06-08T11:52:34.803Z,1.80
2018-06-08T11:55:03.089Z,1.57
2018-06-08T11:57:31.342Z,1.30
2018-06-08T11:59:59.671Z,1.57
2018-06-08T12:02:27.925Z,1.60
2018-06-08T12:04:56.209Z,1.27
2018-06-08T12:07:24.492Z,1.87
2018-06-08T12:09:52.799Z,1.77
2018-06-08T12:12:21.115Z,1.83
2018-06-08T12:14:49.520Z,1.47
2018-06-08T12:17:17.831Z,1.70
2018-06-08T12:19:46.093Z,1.87
2018-06-08T12:22:14.353Z,1.90
2018-06-08T12:24:42.597Z,1.63
2018-06-08T12:27:10.864Z,1.37
2018-06-08T12:29:39.125Z,1.77
2018-06-08T12:32:07.475Z,1.57
2018-06-08T12:34:35.735Z,2.20
2018-06-08T12:37:04.011Z,2.07
2018-06-08T12:39:32.287Z,2.00
2018-06-08T12:42:00.569Z,1.90
2018-06-08T12:44:28.970Z,2.20
2018-06-08T12:46:57.209Z,2.00
2018-06-08T12:49:25.598Z,1.60
2018-06-08T12:51:53.845Z,1.80
2018-06-08T12:54:22.179Z,1.70
2018-06-08T12:56:50.408Z,2.47
2018-06-08T12:59:18.694Z,1.50
2018-06-08T13:01:47.026Z,2.23
2018-06-08T13:04:15.311Z,2.30
2018-06-08T13:06:43.545Z,2.00
2018-06-08T13:09:11.945Z,1.97
2018-06-08T13:11:40.264Z,1.70
2018-06-08T13:14:08.566Z,2.30
2018-06-08T13:16:36.832Z,2.20
2018-06-08T13:19:05.101Z,2.57
2018-06-08T13:21:33.462Z,2.50
2018-06-08T13:24:01.796Z,2.80
2018-06-08T13:26:30.045Z,2.30
2018-06-08T13:28:58.373Z,2.07
2018-06-08T13:31:26.786Z,2.40
2018-06-08T13:33:55.013Z,2.07
2018-06-08T13:36:23.082Z,2.17
2018-06-08T13:38:51.204Z,2.37
2018-06-08T13:41:19.564Z,2.77
2018-06-08T13:43:47.814Z,3.07
2018-06-08T13:46:27.543Z,3.03
2018-06-08T13:48:55.889Z,2.60
2018-06-08T13:51:24.159Z,2.57
2018-06-08T13:53:52.656Z,2.07
2018-06-08T13:56:20.913Z,2.00
2018-06-08T13:58:49.156Z,2.00
2018-06-08T14:01:17.545Z,2.40
2018-06-08T14:03:45.835Z,1.90
2018-06-08T14:06:14.146Z,2.80
2018-06-08T14:08:42.395Z,2.63
2018-06-08T14:11:10.672Z,2.17
2018-06-08T14:13:38.908Z,2.20
2018-06-08T14:16:07.281Z,2.73
2018-06-08T14:18:35.582Z,2.23
2018-06-08T14:21:03.863Z,2.57
2018-06-08T14:23:32.434Z,2.00
2018-06-08T14:26:00.678Z,2.77
2018-06-08T14:28:28.964Z,2.60
2018-06-08T14:30:57.279Z,2.57
2018-06-08T14:33:25.555Z,2.33
2018-06-08T14:35:53.800Z,2.80
2018-06-08T14:38:22.132Z,2.27
2018-06-08T14:40:50.448Z,2.53
2018-06-08T14:43:18.688Z,2.20
2018-06-08T14:45:46.925Z,2.60
2018-06-08T14:48:15.191Z,2.10
2018-06-08T14:50:43.456Z,2.20
2018-06-08T14:53:11.688Z,2.80
2018-06-08T14:55:40.030Z,2.33
2018-06-08T14:58:08.466Z,2.33
2018-06-08T15:00:36.715Z,2.10
2018-06-08T15:03:05.362Z,2.77
2018-06-08T15:05:33.614Z,2.40
2018-06-08T15:08:01.871Z,2.33
2018-06-08T15:10:30.301Z,2.50
2018-06-08T15:12:58.657Z,2.53
2018-06-08T15:15:26.924Z,1.83
2018-06-08T15:17:55.214Z,2.30
2018-06-08T15:20:23.490Z,2.10
2018-06-08T15:22:51.749Z,2.00
2018-06-08T15:25:20.076Z,1.97
2018-06-08T15:27:48.575Z,2.20
2018-06-08T15:30:16.956Z,2.60
2018-06-08T15:32:45.291Z,2.30
2018-06-08T15:35:13.637Z,2.77
2018-06-08T15:37:42.073Z,2.83
2018-06-08T15:40:10.346Z,1.80
2018-06-08T15:42:38.796Z,2.30
2018-06-08T15:45:07.242Z,2.13
2018-06-08T15:47:35.563Z,1.80
2018-06-08T15:50:03.842Z,2.33
2018-06-08T15:52:32.078Z,2.13
2018-06-08T15:55:00.345Z,2.40
2018-06-08T15:57:28.600Z,2.33
2018-06-08T15:59:57.041Z,2.57
2018-06-08T16:02:25.184Z,1.93
2018-06-08T16:04:53.458Z,1.90
2018-06-08T16:07:21.739Z,2.27
2018-06-08T16:09:50.180Z,2.30
2018-06-08T16:12:18.595Z,1.87
2018-06-08T16:14:46.845Z,1.77
2018-06-08T16:17:15.163Z,2.00
2018-06-08T16:19:43.429Z,2.00
2018-06-08T16:22:11.688Z,1.87
2018-06-08T16:24:40.023Z,2.20
2018-06-08T16:27:08.280Z,2.10
2018-06-08T16:29:36.695Z,1.90
2018-06-08T16:32:05.156Z,2.20
2018-06-08T16:34:33.524Z,2.10
2018-06-08T16:37:01.757Z,2.33
2018-06-08T16:39:30.033Z,2.27
2018-06-08T16:41:58.289Z,1.90
2018-06-08T16:44:26.551Z,2.17
2018-06-08T16:46:55.099Z,2.30
2018-06-08T16:49:23.339Z,2.90
2018-06-08T16:51:51.611Z,2.13
2018-06-08T16:54:19.973Z,2.23
2018-06-08T16:56:48.227Z,2.43
2018-06-08T16:59:16.528Z,2.67
2018-06-08T17:01:44.813Z,1.90
2018-06-08T17:04:13.135Z,2.23
2018-06-08T17:06:41.525Z,2.00
2018-06-08T17:09:09.923Z,2.33
2018-06-08T17:11:38.189Z,2.37
2018-06-08T17:14:06.476Z,2.53
2018-06-08T17:16:34.708Z,2.67
2018-06-08T17:19:02.955Z,2.40
2018-06-08T17:21:31.903Z,1.90
2018-06-08T17:24:00.059Z,2.00
2018-06-08T17:26:28.340Z,2.50
2018-06-08T17:28:56.643Z,2.63
2018-06-08T17:31:24.948Z,2.53
2018-06-08T17:33:53.847Z,2.63
2018-06-08T17:36:22.411Z,2.70
2018-06-08T17:38:51.163Z,2.70
2018-06-08T17:41:19.184Z,2.57
2018-06-08T17:43:47.454Z,2.47
2018-06-08T17:46:15.733Z,2.63
2018-06-08T17:48:44.144Z,2.60
2018-06-08T17:51:12.424Z,3.10
2018-06-08T17:53:40.738Z,2.60
2018-06-08T17:56:09.029Z,2.37
2018-06-08T17:58:37.484Z,2.70
2018-06-08T18:01:05.973Z,2.40
2018-06-08T18:03:34.392Z,2.77
2018-06-08T18:06:02.761Z,2.63
2018-06-08T18:08:31.589Z,2.73
2018-06-08T18:11:00.517Z,2.73
2018-06-08T18:13:29.241Z,2.97
2018-06-08T18:15:58.352Z,2.40
2018-06-08T18:18:32.414Z,2.90
2018-06-08T18:21:02.703Z,2.50
2018-06-08T18:23:32.918Z,2.80
2018-06-08T18:26:01.695Z,2.40
2018-06-08T18:33:27.620Z,2.33
2018-06-08T18:35:56.918Z,2.60
2018-06-08T18:38:26.229Z,3.60
2018-06-08T18:40:55.519Z,3.77
2018-06-08T18:43:24.773Z,3.13
2018-06-08T18:45:53.998Z,3.40
2018-06-08T18:48:29.577Z,3.20
2018-06-08T18:50:58.713Z,2.77
2018-06-08T18:53:27.966Z,3.73
2018-06-08T18:55:57.206Z,3.57
2018-06-08T18:58:26.422Z,3.30
2018-06-08T19:00:55.557Z,4.10
2018-06-08T19:03:24.784Z,3.80
2018-06-08T19:05:54.036Z,3.63
2018-06-08T19:08:23.291Z,3.67
2018-06-08T19:10:53.036Z,3.23
2018-06-08T19:13:22.338Z,3.37
2018-06-08T19:15:51.703Z,4.60
2018-06-08T19:18:21.469Z,3.83
2018-06-08T19:20:50.924Z,4.20
2018-06-08T19:23:20.542Z,3.50
2018-06-08T19:25:49.774Z,3.70
2018-06-08T19:28:19.027Z,4.33
2018-06-08T19:30:48.460Z,4.07
2018-06-08T19:33:17.825Z,4.93
2018-06-08T19:35:47.222Z,4.70
2018-06-08T19:38:16.781Z,3.53
2018-06-08T19:40:46.187Z,4.30
2018-06-08T19:43:15.663Z,3.80
2018-06-08T19:45:45.074Z,4.57
2018-06-08T19:48:14.320Z,3.67
2018-06-08T19:50:43.828Z,4.00
2018-06-08T19:53:13.899Z,4.53
2018-06-08T19:55:43.967Z,3.87
2018-06-08T19:58:13.546Z,4.27
2018-06-08T20:00:43.024Z,4.20
2018-06-08T20:03:13.034Z,3.93
2018-06-08T20:05:42.807Z,4.43
2018-06-08T20:08:13.260Z,3.97
2018-06-08T20:10:43.981Z,4.00
2018-06-08T20:13:13.419Z,4.33
2018-06-08T20:15:42.633Z,4.50
2018-06-08T20:18:11.785Z,4.17
2018-06-08T20:20:40.925Z,4.30
2018-06-08T20:23:10.090Z,3.90
2018-06-08T20:25:38.331Z,4.23
2018-06-08T20:28:06.651Z,3.87
2018-06-08T20:30:35.011Z,4.17
2018-06-08T20:33:03.300Z,4.00
2018-06-08T20:35:31.604Z,4.30
2018-06-08T20:37:59.860Z,4.50
2018-06-08T20:40:28.116Z,3.60
2018-06-08T20:42:56.506Z,4.17
2018-06-08T20:45:24.883Z,4.20
2018-06-08T20:47:53.141Z,3.10
2018-06-08T20:50:21.357Z,3.77
2018-06-08T20:52:49.653Z,4.03
2018-06-08T20:55:17.913Z,4.57
2018-06-08T20:57:57.457Z,5.10
2018-06-08T21:00:25.802Z,4.30
2018-06-08T21:02:54.081Z,3.80
2018-06-08T21:05:22.663Z,4.40
2018-06-08T21:07:50.996Z,4.00
2018-06-08T21:10:19.315Z,4.80
2018-06-08T21:12:47.580Z,3.33
2018-06-08T21:15:15.848Z,3.60
2018-06-08T21:17:45.090Z,3.80
2018-06-08T21:20:13.649Z,4.77
2018-06-08T21:22:41.896Z,4.53
2018-06-08T21:25:10.247Z,4.23
2018-06-08T21:27:38.470Z,3.10
2018-06-08T21:30:07.516Z,3.23
2018-06-08T21:32:36.892Z,4.03
2018-06-08T21:35:06.734Z,3.50
2018-06-08T21:37:35.809Z,2.70
2018-06-08T21:40:05.054Z,3.63
2018-06-08T21:42:34.521Z,3.10
2018-06-08T21:45:03.642Z,3.60
2018-06-08T21:47:32.633Z,3.17
2018-06-08T21:50:01.970Z,3.87
2018-06-08T21:52:30.889Z,4.27
2018-06-08T21:55:00.482Z,3.63
2018-06-08T21:57:30.130Z,4.23
2018-06-08T21:59:59.815Z,3.40
2018-06-08T22:02:28.437Z,3.63
2018-06-08T22:04:57.772Z,3.10
2018-06-08T22:07:27.007Z,2.80
2018-06-08T22:09:56.165Z,2.60
2018-06-08T22:12:25.237Z,3.53
2018-06-08T22:14:54.627Z,3.23
2018-06-08T22:17:23.838Z,2.77
2018-06-08T22:19:53.083Z,3.63
2018-06-08T22:22:22.321Z,3.40
2018-06-08T22:24:51.487Z,3.50
2018-06-08T22:27:20.488Z,3.77
2018-06-08T22:29:49.546Z,2.90
2018-06-08T22:32:18.831Z,3.73
2018-06-08T22:34:48.039Z,3.20
2018-06-08T22:37:17.261Z,3.20
2018-06-08T22:39:46.592Z,3.17
2018-06-08T22:42:15.716Z,3.20
2018-06-08T22:44:45.161Z,3.17
2018-06-08T22:47:14.253Z,4.03
2018-06-08T22:49:43.933Z,2.47
2018-06-08T22:52:12.911Z,2.90
2018-06-08T22:54:42.220Z,3.30
2018-06-08T22:57:11.505Z,3.37
2018-06-08T22:59:40.730Z,3.10
2018-06-08T23:02:09.958Z,3.43
2018-06-08T23:04:39.169Z,3.83
2018-06-08T23:07:15.576Z,3.57
2018-06-08T23:09:44.737Z,3.90
2018-06-08T23:12:13.843Z,3.93
2018-06-08T23:14:43.067Z,3.60
2018-06-08T23:17:12.989Z,4.20
2018-06-08T23:19:42.057Z,3.20
2018-06-08T23:22:11.747Z,3.50
2018-06-08T23:24:40.885Z,3.47
2018-06-08T23:27:10.044Z,3.30
2018-06-08T23:29:39.221Z,4.20
2018-06-08T23:32:08.261Z,3.47
2018-06-08T23:34:37.578Z,3.60
2018-06-08T23:37:07.374Z,3.30
2018-06-08T23:39:36.585Z,4.10
2018-06-08T23:42:05.951Z,3.50
2018-06-08T23:44:35.392Z,3.73
2018-06-08T23:47:05.000Z,3.27
2018-06-08T23:49:34.256Z,4.70
2018-06-08T23:52:03.426Z,4.30
2018-06-08T23:54:32.561Z,3.60
2018-06-08T23:57:01.738Z,3.80
2018-06-08T23:59:31.102Z,3.77
